sensor_id;sensor_type;location;lat;lon;timestamp;P1;durP1;ratioP1;P2;durP2;ratioP2
13185;SDS011;6658;53.080;7.428;2023-02-03T00:00:10;4.47;;;1.53;;
13185;SDS011;6658;53.080;7.428;2023-02-03T00:02:36;2.33;;;1.30;;
13185;SDS011;6658;53.080;7.428;2023-02-03T00:05:01;2.97;;;1.57;;
13185;SDS011;6658;53.080;7.428;2023-02-03T00:07:27;3.17;;;1.30;;
13185;SDS011;6658;53.080;7.428;2023-02-03T00:09:54;1.83;;;1.40;;
13185;SDS011;6658;53.080;7.428;2023-02-03T00:12:21;2.63;;;1.20;;
13185;SDS011;6658;53.080;7.428;2023-02-03T00:14:47;2.00;;;1.20;;
13185;SDS011;6658;53.080;7.428;2023-02-03T00:17:12;3.53;;;1.70;;
13185;SDS011;6658;53.080;7.428;2023-02-03T00:19:39;2.83;;;1.17;;
13185;SDS011;6658;53.080;7.428;2023-02-03T00:22:05;3.70;;;1.70;;
13185;SDS011;6658;53.080;7.428;2023-02-03T00:24:31;2.07;;;1.40;;
13185;SDS011;6658;53.080;7.428;2023-02-03T00:26:56;4.33;;;1.50;;
13185;SDS011;6658;53.080;7.428;2023-02-03T00:29:22;2.70;;;1.40;;
13185;SDS011;6658;53.080;7.428;2023-02-03T00:31:50;2.73;;;1.43;;
13185;SDS011;6658;53.080;7.428;2023-02-03T00:34:17;2.30;;;1.00;;
13185;SDS011;6658;53.080;7.428;2023-02-03T00:36:43;1.30;;;1.20;;
13185;SDS011;6658;53.080;7.428;2023-02-03T00:39:10;2.90;;;1.47;;
13185;SDS011;6658;53.080;7.428;2023-02-03T00:41:36;2.63;;;1.33;;
13185;SDS011;6658;53.080;7.428;2023-02-03T00:44:02;5.83;;;1.60;;
13185;SDS011;6658;53.080;7.428;2023-02-03T00:46:28;1.97;;;1.23;;
13185;SDS011;6658;53.080;7.428;2023-02-03T00:48:53;3.87;;;1.67;;
13185;SDS011;6658;53.080;7.428;2023-02-03T00:51:19;3.80;;;1.60;;
13185;SDS011;6658;53.080;7.428;2023-02-03T00:53:46;3.23;;;1.20;;
13185;SDS011;6658;53.080;7.428;2023-02-03T00:56:12;5.03;;;1.20;;
13185;SDS011;6658;53.080;7.428;2023-02-03T00:58:38;3.10;;;1.30;;
13185;SDS011;6658;53.080;7.428;2023-02-03T01:01:04;3.50;;;1.47;;
13185;SDS011;6658;53.080;7.428;2023-02-03T01:03:30;2.27;;;1.13;;
13185;SDS011;6658;53.080;7.428;2023-02-03T01:06:06;4.53;;;1.90;;
13185;SDS011;6658;53.080;7.428;2023-02-03T01:08:40;3.20;;;1.20;;
13185;SDS011;6658;53.080;7.428;2023-02-03T01:11:09;2.83;;;1.10;;
13185;SDS011;6658;53.080;7.428;2023-02-03T01:13:37;1.67;;;1.20;;
13185;SDS011;6658;53.080;7.428;2023-02-03T01:16:06;3.17;;;1.40;;
13185;SDS011;6658;53.080;7.428;2023-02-03T01:18:32;1.50;;;1.40;;
13185;SDS011;6658;53.080;7.428;2023-02-03T01:21:03;4.67;;;1.53;;
13185;SDS011;6658;53.080;7.428;2023-02-03T01:23:34;4.87;;;1.50;;
13185;SDS011;6658;53.080;7.428;2023-02-03T01:26:01;2.90;;;1.40;;
13185;SDS011;6658;53.080;7.428;2023-02-03T01:28:28;3.00;;;1.40;;
13185;SDS011;6658;53.080;7.428;2023-02-03T01:30:54;3.00;;;1.40;;
13185;SDS011;6658;53.080;7.428;2023-02-03T01:33:19;1.87;;;1.27;;
13185;SDS011;6658;53.080;7.428;2023-02-03T01:35:45;3.33;;;1.30;;
13185;SDS011;6658;53.080;7.428;2023-02-03T01:38:11;3.47;;;1.63;;
13185;SDS011;6658;53.080;7.428;2023-02-03T01:40:43;4.97;;;1.50;;
13185;SDS011;6658;53.080;7.428;2023-02-03T01:43:09;2.80;;;1.13;;
13185;SDS011;6658;53.080;7.428;2023-02-03T01:45:35;1.30;;;1.00;;
13185;SDS011;6658;53.080;7.428;2023-02-03T01:48:02;3.20;;;1.50;;
13185;SDS011;6658;53.080;7.428;2023-02-03T01:50:33;4.70;;;1.93;;
13185;SDS011;6658;53.080;7.428;2023-02-03T01:53:10;2.53;;;1.23;;
13185;SDS011;6658;53.080;7.428;2023-02-03T01:55:37;3.23;;;1.10;;
13185;SDS011;6658;53.080;7.428;2023-02-03T01:58:10;1.63;;;1.30;;
13185;SDS011;6658;53.080;7.428;2023-02-03T02:00:50;2.20;;;1.20;;
13185;SDS011;6658;53.080;7.428;2023-02-03T02:03:18;3.37;;;1.30;;
13185;SDS011;6658;53.080;7.428;2023-02-03T02:05:59;1.83;;;1.17;;
13185;SDS011;6658;53.080;7.428;2023-02-03T02:08:28;2.90;;;1.30;;
13185;SDS011;6658;53.080;7.428;2023-02-03T02:10:55;2.30;;;1.30;;
13185;SDS011;6658;53.080;7.428;2023-02-03T02:13:23;3.17;;;1.53;;
13185;SDS011;6658;53.080;7.428;2023-02-03T02:18:36;2.97;;;1.40;;
13185;SDS011;6658;53.080;7.428;2023-02-03T02:23:58;2.67;;;1.37;;
13185;SDS011;6658;53.080;7.428;2023-02-03T02:34:36;4.43;;;1.80;;
13185;SDS011;6658;53.080;7.428;2023-02-03T02:40:04;2.50;;;1.27;;
13185;SDS011;6658;53.080;7.428;2023-02-03T02:42:35;8.37;;;1.90;;
13185;SDS011;6658;53.080;7.428;2023-02-03T02:45:14;5.00;;;1.70;;
13185;SDS011;6658;53.080;7.428;2023-02-03T02:47:50;3.00;;;1.77;;
13185;SDS011;6658;53.080;7.428;2023-02-03T02:50:22;3.20;;;1.47;;
13185;SDS011;6658;53.080;7.428;2023-02-03T02:52:50;3.87;;;1.47;;
13185;SDS011;6658;53.080;7.428;2023-02-03T02:55:19;3.97;;;1.60;;
13185;SDS011;6658;53.080;7.428;2023-02-03T02:57:52;4.73;;;1.30;;
13185;SDS011;6658;53.080;7.428;2023-02-03T03:00:21;3.30;;;1.30;;
13185;SDS011;6658;53.080;7.428;2023-02-03T03:02:47;4.47;;;1.80;;
13185;SDS011;6658;53.080;7.428;2023-02-03T03:05:14;3.47;;;1.43;;
13185;SDS011;6658;53.080;7.428;2023-02-03T03:07:47;3.53;;;1.43;;
13185;SDS011;6658;53.080;7.428;2023-02-03T03:10:19;3.00;;;1.50;;
13185;SDS011;6658;53.080;7.428;2023-02-03T03:12:49;2.67;;;1.53;;
13185;SDS011;6658;53.080;7.428;2023-02-03T03:15:21;3.17;;;2.20;;
13185;SDS011;6658;53.080;7.428;2023-02-03T03:17:53;3.63;;;1.70;;
13185;SDS011;6658;53.080;7.428;2023-02-03T03:20:38;4.23;;;1.33;;
13185;SDS011;6658;53.080;7.428;2023-02-03T03:23:08;1.63;;;1.20;;
13185;SDS011;6658;53.080;7.428;2023-02-03T03:25:40;2.60;;;1.33;;
13185;SDS011;6658;53.080;7.428;2023-02-03T03:28:15;4.40;;;1.50;;
13185;SDS011;6658;53.080;7.428;2023-02-03T03:30:48;2.90;;;1.30;;
13185;SDS011;6658;53.080;7.428;2023-02-03T03:33:14;5.27;;;1.60;;
13185;SDS011;6658;53.080;7.428;2023-02-03T03:35:41;2.47;;;1.30;;
13185;SDS011;6658;53.080;7.428;2023-02-03T03:38:26;2.93;;;1.43;;
13185;SDS011;6658;53.080;7.428;2023-02-03T03:41:19;4.83;;;1.63;;
13185;SDS011;6658;53.080;7.428;2023-02-03T03:43:48;3.83;;;1.47;;
13185;SDS011;6658;53.080;7.428;2023-02-03T03:46:20;3.50;;;1.53;;
13185;SDS011;6658;53.080;7.428;2023-02-03T03:51:23;2.07;;;1.10;;
13185;SDS011;6658;53.080;7.428;2023-02-03T03:53:59;2.73;;;1.70;;
13185;SDS011;6658;53.080;7.428;2023-02-03T03:56:35;5.47;;;2.10;;
13185;SDS011;6658;53.080;7.428;2023-02-03T03:59:09;3.83;;;1.73;;
13185;SDS011;6658;53.080;7.428;2023-02-03T04:01:37;3.90;;;1.57;;
13185;SDS011;6658;53.080;7.428;2023-02-03T04:04:05;2.73;;;1.20;;
13185;SDS011;6658;53.080;7.428;2023-02-03T04:06:33;4.63;;;1.60;;
13185;SDS011;6658;53.080;7.428;2023-02-03T04:09:00;4.47;;;1.73;;
13185;SDS011;6658;53.080;7.428;2023-02-03T04:11:26;3.80;;;1.70;;
13185;SDS011;6658;53.080;7.428;2023-02-03T04:14:10;4.80;;;1.90;;
13185;SDS011;6658;53.080;7.428;2023-02-03T04:16:36;4.40;;;1.90;;
13185;SDS011;6658;53.080;7.428;2023-02-03T04:19:01;2.17;;;1.20;;
13185;SDS011;6658;53.080;7.428;2023-02-03T04:21:27;3.07;;;1.17;;
13185;SDS011;6658;53.080;7.428;2023-02-03T04:23:53;6.03;;;1.97;;
13185;SDS011;6658;53.080;7.428;2023-02-03T04:26:20;4.50;;;1.70;;
13185;SDS011;6658;53.080;7.428;2023-02-03T04:28:46;5.60;;;1.50;;
13185;SDS011;6658;53.080;7.428;2023-02-03T04:31:12;3.40;;;1.60;;
13185;SDS011;6658;53.080;7.428;2023-02-03T04:33:38;3.03;;;1.77;;
13185;SDS011;6658;53.080;7.428;2023-02-03T04:36:04;3.33;;;1.67;;
13185;SDS011;6658;53.080;7.428;2023-02-03T04:38:30;3.47;;;1.53;;
13185;SDS011;6658;53.080;7.428;2023-02-03T04:40:57;4.67;;;1.93;;
13185;SDS011;6658;53.080;7.428;2023-02-03T04:43:23;2.60;;;1.67;;
13185;SDS011;6658;53.080;7.428;2023-02-03T04:45:48;4.80;;;1.97;;
13185;SDS011;6658;53.080;7.428;2023-02-03T04:48:14;3.47;;;1.27;;
13185;SDS011;6658;53.080;7.428;2023-02-03T04:50:40;3.30;;;1.53;;
13185;SDS011;6658;53.080;7.428;2023-02-03T04:53:06;6.87;;;1.87;;
13185;SDS011;6658;53.080;7.428;2023-02-03T04:55:32;4.90;;;2.30;;
13185;SDS011;6658;53.080;7.428;2023-02-03T04:57:58;3.43;;;1.80;;
13185;SDS011;6658;53.080;7.428;2023-02-03T05:00:25;3.37;;;1.50;;
13185;SDS011;6658;53.080;7.428;2023-02-03T05:02:51;4.57;;;1.80;;
13185;SDS011;6658;53.080;7.428;2023-02-03T05:05:17;3.60;;;1.53;;
13185;SDS011;6658;53.080;7.428;2023-02-03T05:07:43;4.37;;;1.70;;
13185;SDS011;6658;53.080;7.428;2023-02-03T05:10:09;3.63;;;1.47;;
13185;SDS011;6658;53.080;7.428;2023-02-03T05:12:35;3.90;;;2.03;;
13185;SDS011;6658;53.080;7.428;2023-02-03T05:15:00;6.10;;;2.33;;
13185;SDS011;6658;53.080;7.428;2023-02-03T05:17:26;3.97;;;1.40;;
13185;SDS011;6658;53.080;7.428;2023-02-03T05:19:52;3.87;;;1.83;;
13185;SDS011;6658;53.080;7.428;2023-02-03T05:22:17;4.43;;;1.70;;
13185;SDS011;6658;53.080;7.428;2023-02-03T05:24:43;3.80;;;1.50;;
13185;SDS011;6658;53.080;7.428;2023-02-03T05:27:09;5.17;;;1.90;;
13185;SDS011;6658;53.080;7.428;2023-02-03T05:29:34;4.00;;;2.10;;
13185;SDS011;6658;53.080;7.428;2023-02-03T05:32:00;3.97;;;1.80;;
13185;SDS011;6658;53.080;7.428;2023-02-03T05:34:26;5.17;;;1.63;;
13185;SDS011;6658;53.080;7.428;2023-02-03T05:36:51;3.90;;;1.40;;
13185;SDS011;6658;53.080;7.428;2023-02-03T05:39:17;4.10;;;1.47;;
13185;SDS011;6658;53.080;7.428;2023-02-03T05:41:43;4.20;;;1.50;;
13185;SDS011;6658;53.080;7.428;2023-02-03T05:44:21;3.03;;;1.70;;
13185;SDS011;6658;53.080;7.428;2023-02-03T05:46:49;5.83;;;2.10;;
13185;SDS011;6658;53.080;7.428;2023-02-03T05:49:16;5.10;;;1.70;;
13185;SDS011;6658;53.080;7.428;2023-02-03T05:51:43;3.60;;;1.80;;
13185;SDS011;6658;53.080;7.428;2023-02-03T05:54:10;2.57;;;1.57;;
13185;SDS011;6658;53.080;7.428;2023-02-03T05:56:36;5.33;;;1.63;;
13185;SDS011;6658;53.080;7.428;2023-02-03T05:59:02;4.70;;;1.70;;
13185;SDS011;6658;53.080;7.428;2023-02-03T06:01:29;2.50;;;1.40;;
13185;SDS011;6658;53.080;7.428;2023-02-03T06:03:56;5.83;;;2.17;;
13185;SDS011;6658;53.080;7.428;2023-02-03T06:06:22;4.33;;;1.57;;
13185;SDS011;6658;53.080;7.428;2023-02-03T06:08:48;4.27;;;1.60;;
13185;SDS011;6658;53.080;7.428;2023-02-03T06:11:20;4.47;;;1.53;;
13185;SDS011;6658;53.080;7.428;2023-02-03T06:13:48;5.43;;;1.63;;
13185;SDS011;6658;53.080;7.428;2023-02-03T06:16:14;4.90;;;1.73;;
13185;SDS011;6658;53.080;7.428;2023-02-03T06:18:40;5.80;;;1.73;;
13185;SDS011;6658;53.080;7.428;2023-02-03T06:21:06;6.30;;;1.97;;
13185;SDS011;6658;53.080;7.428;2023-02-03T06:23:32;4.77;;;2.00;;
13185;SDS011;6658;53.080;7.428;2023-02-03T06:25:58;4.33;;;1.87;;
13185;SDS011;6658;53.080;7.428;2023-02-03T06:28:24;3.90;;;1.90;;
13185;SDS011;6658;53.080;7.428;2023-02-03T06:30:51;2.47;;;1.27;;
13185;SDS011;6658;53.080;7.428;2023-02-03T06:33:19;3.63;;;1.63;;
13185;SDS011;6658;53.080;7.428;2023-02-03T06:35:45;5.33;;;1.97;;
13185;SDS011;6658;53.080;7.428;2023-02-03T06:38:11;3.37;;;1.70;;
13185;SDS011;6658;53.080;7.428;2023-02-03T06:40:37;7.93;;;2.27;;
13185;SDS011;6658;53.080;7.428;2023-02-03T06:43:02;3.70;;;1.87;;
13185;SDS011;6658;53.080;7.428;2023-02-03T06:45:28;5.10;;;1.90;;
13185;SDS011;6658;53.080;7.428;2023-02-03T06:47:54;4.83;;;2.03;;
13185;SDS011;6658;53.080;7.428;2023-02-03T06:50:20;5.93;;;2.03;;
13185;SDS011;6658;53.080;7.428;2023-02-03T06:52:47;5.77;;;2.00;;
13185;SDS011;6658;53.080;7.428;2023-02-03T06:55:14;5.50;;;2.10;;
13185;SDS011;6658;53.080;7.428;2023-02-03T06:57:46;7.77;;;2.40;;
13185;SDS011;6658;53.080;7.428;2023-02-03T07:00:13;3.30;;;1.90;;
13185;SDS011;6658;53.080;7.428;2023-02-03T07:02:42;8.00;;;2.60;;
13185;SDS011;6658;53.080;7.428;2023-02-03T07:05:08;5.10;;;2.20;;
13185;SDS011;6658;53.080;7.428;2023-02-03T07:07:34;6.40;;;2.40;;
13185;SDS011;6658;53.080;7.428;2023-02-03T07:10:01;7.50;;;2.53;;
13185;SDS011;6658;53.080;7.428;2023-02-03T07:12:27;3.53;;;2.13;;
13185;SDS011;6658;53.080;7.428;2023-02-03T07:14:53;7.57;;;2.43;;
13185;SDS011;6658;53.080;7.428;2023-02-03T07:17:18;3.80;;;1.83;;
13185;SDS011;6658;53.080;7.428;2023-02-03T07:19:44;5.60;;;1.97;;
13185;SDS011;6658;53.080;7.428;2023-02-03T07:22:10;6.80;;;2.80;;
13185;SDS011;6658;53.080;7.428;2023-02-03T07:24:36;5.23;;;2.20;;
13185;SDS011;6658;53.080;7.428;2023-02-03T07:27:01;6.23;;;2.63;;
13185;SDS011;6658;53.080;7.428;2023-02-03T07:29:27;7.00;;;2.40;;
13185;SDS011;6658;53.080;7.428;2023-02-03T07:31:53;4.97;;;2.03;;
13185;SDS011;6658;53.080;7.428;2023-02-03T07:34:19;6.53;;;2.60;;
13185;SDS011;6658;53.080;7.428;2023-02-03T07:36:44;6.20;;;2.23;;
13185;SDS011;6658;53.080;7.428;2023-02-03T07:39:10;4.73;;;1.97;;
13185;SDS011;6658;53.080;7.428;2023-02-03T07:41:36;5.23;;;2.23;;
13185;SDS011;6658;53.080;7.428;2023-02-03T07:44:02;6.67;;;2.77;;
13185;SDS011;6658;53.080;7.428;2023-02-03T07:46:29;9.10;;;2.33;;
13185;SDS011;6658;53.080;7.428;2023-02-03T07:48:55;7.77;;;2.37;;
13185;SDS011;6658;53.080;7.428;2023-02-03T07:51:20;4.90;;;2.20;;
13185;SDS011;6658;53.080;7.428;2023-02-03T07:53:46;6.10;;;2.27;;
13185;SDS011;6658;53.080;7.428;2023-02-03T07:56:12;7.87;;;2.53;;
13185;SDS011;6658;53.080;7.428;2023-02-03T07:58:38;5.90;;;2.23;;
13185;SDS011;6658;53.080;7.428;2023-02-03T08:01:11;8.30;;;2.63;;
13185;SDS011;6658;53.080;7.428;2023-02-03T08:03:39;5.00;;;2.27;;
13185;SDS011;6658;53.080;7.428;2023-02-03T08:06:05;7.70;;;2.50;;
13185;SDS011;6658;53.080;7.428;2023-02-03T08:08:31;7.00;;;2.03;;
13185;SDS011;6658;53.080;7.428;2023-02-03T08:10:57;8.40;;;2.40;;
13185;SDS011;6658;53.080;7.428;2023-02-03T08:13:23;8.00;;;2.57;;
13185;SDS011;6658;53.080;7.428;2023-02-03T08:15:49;8.13;;;2.10;;
13185;SDS011;6658;53.080;7.428;2023-02-03T08:18:14;6.83;;;2.47;;
13185;SDS011;6658;53.080;7.428;2023-02-03T08:20:40;5.43;;;1.73;;
13185;SDS011;6658;53.080;7.428;2023-02-03T08:23:06;5.33;;;2.40;;
13185;SDS011;6658;53.080;7.428;2023-02-03T08:25:31;5.53;;;1.97;;
13185;SDS011;6658;53.080;7.428;2023-02-03T08:27:57;3.47;;;2.10;;
13185;SDS011;6658;53.080;7.428;2023-02-03T08:30:23;8.60;;;2.60;;
13185;SDS011;6658;53.080;7.428;2023-02-03T08:32:49;8.20;;;2.80;;
13185;SDS011;6658;53.080;7.428;2023-02-03T08:35:15;3.27;;;1.30;;
13185;SDS011;6658;53.080;7.428;2023-02-03T08:37:41;5.23;;;1.83;;
13185;SDS011;6658;53.080;7.428;2023-02-03T08:40:07;6.37;;;2.53;;
13185;SDS011;6658;53.080;7.428;2023-02-03T08:42:33;7.93;;;2.10;;
13185;SDS011;6658;53.080;7.428;2023-02-03T08:44:59;10.13;;;3.07;;
13185;SDS011;6658;53.080;7.428;2023-02-03T08:47:25;9.90;;;2.97;;
13185;SDS011;6658;53.080;7.428;2023-02-03T08:49:51;7.43;;;2.53;;
13185;SDS011;6658;53.080;7.428;2023-02-03T08:52:17;2.70;;;1.67;;
13185;SDS011;6658;53.080;7.428;2023-02-03T08:54:43;8.13;;;2.73;;
13185;SDS011;6658;53.080;7.428;2023-02-03T08:57:09;7.20;;;2.50;;
13185;SDS011;6658;53.080;7.428;2023-02-03T08:59:36;6.63;;;2.67;;
13185;SDS011;6658;53.080;7.428;2023-02-03T09:02:04;5.83;;;2.27;;
13185;SDS011;6658;53.080;7.428;2023-02-03T09:04:32;8.03;;;2.77;;
13185;SDS011;6658;53.080;7.428;2023-02-03T09:06:58;7.93;;;1.93;;
13185;SDS011;6658;53.080;7.428;2023-02-03T09:09:25;6.80;;;2.00;;
13185;SDS011;6658;53.080;7.428;2023-02-03T09:11:51;9.17;;;3.17;;
13185;SDS011;6658;53.080;7.428;2023-02-03T09:14:19;10.73;;;3.03;;
13185;SDS011;6658;53.080;7.428;2023-02-03T09:16:45;9.60;;;2.93;;
13185;SDS011;6658;53.080;7.428;2023-02-03T09:19:11;7.27;;;2.57;;
13185;SDS011;6658;53.080;7.428;2023-02-03T09:21:37;7.97;;;2.73;;
13185;SDS011;6658;53.080;7.428;2023-02-03T09:24:03;4.87;;;2.13;;
13185;SDS011;6658;53.080;7.428;2023-02-03T09:26:29;6.57;;;2.43;;
13185;SDS011;6658;53.080;7.428;2023-02-03T09:28:54;10.37;;;3.73;;
13185;SDS011;6658;53.080;7.428;2023-02-03T09:31:20;14.27;;;4.20;;
13185;SDS011;6658;53.080;7.428;2023-02-03T09:33:46;11.87;;;3.50;;
13185;SDS011;6658;53.080;7.428;2023-02-03T09:36:12;8.13;;;3.23;;
13185;SDS011;6658;53.080;7.428;2023-02-03T09:38:37;11.30;;;2.77;;
13185;SDS011;6658;53.080;7.428;2023-02-03T09:43:39;6.00;;;2.40;;
13185;SDS011;6658;53.080;7.428;2023-02-03T09:46:32;12.90;;;3.80;;
13185;SDS011;6658;53.080;7.428;2023-02-03T09:52:22;9.60;;;2.93;;
13185;SDS011;6658;53.080;7.428;2023-02-03T09:55:01;5.57;;;2.57;;
13185;SDS011;6658;53.080;7.428;2023-02-03T09:57:34;9.27;;;2.97;;
13185;SDS011;6658;53.080;7.428;2023-02-03T10:00:23;9.43;;;2.53;;
13185;SDS011;6658;53.080;7.428;2023-02-03T10:03:01;9.47;;;3.13;;
13185;SDS011;6658;53.080;7.428;2023-02-03T10:16:59;9.17;;;3.40;;
13185;SDS011;6658;53.080;7.428;2023-02-03T10:19:43;6.57;;;2.27;;
13185;SDS011;6658;53.080;7.428;2023-02-03T10:22:21;11.50;;;3.20;;
13185;SDS011;6658;53.080;7.428;2023-02-03T10:27:24;10.10;;;3.40;;
13185;SDS011;6658;53.080;7.428;2023-02-03T10:29:57;9.13;;;2.33;;
13185;SDS011;6658;53.080;7.428;2023-02-03T10:32:28;11.83;;;3.60;;
13185;SDS011;6658;53.080;7.428;2023-02-03T10:34:54;15.00;;;4.57;;
13185;SDS011;6658;53.080;7.428;2023-02-03T10:37:30;7.43;;;2.17;;
13185;SDS011;6658;53.080;7.428;2023-02-03T10:40:01;10.57;;;3.20;;
13185;SDS011;6658;53.080;7.428;2023-02-03T10:42:30;11.80;;;3.57;;
13185;SDS011;6658;53.080;7.428;2023-02-03T10:45:16;8.43;;;3.50;;
13185;SDS011;6658;53.080;7.428;2023-02-03T10:47:50;13.50;;;4.27;;
13185;SDS011;6658;53.080;7.428;2023-02-03T10:50:20;12.37;;;3.23;;
13185;SDS011;6658;53.080;7.428;2023-02-03T10:52:48;10.77;;;3.37;;
13185;SDS011;6658;53.080;7.428;2023-02-03T10:57:48;9.93;;;3.37;;
13185;SDS011;6658;53.080;7.428;2023-02-03T11:03:03;13.90;;;4.30;;
13185;SDS011;6658;53.080;7.428;2023-02-03T11:05:29;9.57;;;3.30;;
13185;SDS011;6658;53.080;7.428;2023-02-03T11:07:55;10.07;;;2.20;;
13185;SDS011;6658;53.080;7.428;2023-02-03T11:12:53;12.13;;;3.60;;
13185;SDS011;6658;53.080;7.428;2023-02-03T11:15:36;8.07;;;2.40;;
13185;SDS011;6658;53.080;7.428;2023-02-03T11:18:02;12.27;;;3.60;;
13185;SDS011;6658;53.080;7.428;2023-02-03T11:20:28;12.33;;;3.77;;
13185;SDS011;6658;53.080;7.428;2023-02-03T11:22:54;14.20;;;3.67;;
13185;SDS011;6658;53.080;7.428;2023-02-03T11:25:26;12.00;;;3.13;;
13185;SDS011;6658;53.080;7.428;2023-02-03T11:27:56;14.17;;;4.00;;
13185;SDS011;6658;53.080;7.428;2023-02-03T11:30:29;11.57;;;3.50;;
13185;SDS011;6658;53.080;7.428;2023-02-03T11:32:55;10.93;;;2.77;;
13185;SDS011;6658;53.080;7.428;2023-02-03T11:35:25;11.90;;;2.97;;
13185;SDS011;6658;53.080;7.428;2023-02-03T11:37:56;10.63;;;2.80;;
13185;SDS011;6658;53.080;7.428;2023-02-03T11:40:27;15.87;;;4.13;;
13185;SDS011;6658;53.080;7.428;2023-02-03T11:43:02;14.93;;;4.50;;
13185;SDS011;6658;53.080;7.428;2023-02-03T11:45:41;21.40;;;4.97;;
13185;SDS011;6658;53.080;7.428;2023-02-03T11:48:15;13.47;;;3.53;;
13185;SDS011;6658;53.080;7.428;2023-02-03T12:06:00;13.53;;;3.10;;
13185;SDS011;6658;53.080;7.428;2023-02-03T12:11:31;13.80;;;4.00;;
13185;SDS011;6658;53.080;7.428;2023-02-03T12:17:12;7.27;;;2.40;;
13185;SDS011;6658;53.080;7.428;2023-02-03T12:19:49;14.77;;;3.50;;
13185;SDS011;6658;53.080;7.428;2023-02-03T12:30:38;10.53;;;3.10;;
13185;SDS011;6658;53.080;7.428;2023-02-03T12:33:18;11.23;;;3.90;;
13185;SDS011;6658;53.080;7.428;2023-02-03T12:35:53;13.33;;;4.20;;
13185;SDS011;6658;53.080;7.428;2023-02-03T12:38:30;12.60;;;2.97;;
13185;SDS011;6658;53.080;7.428;2023-02-03T12:41:00;14.83;;;2.63;;
13185;SDS011;6658;53.080;7.428;2023-02-03T12:43:43;8.47;;;3.00;;
13185;SDS011;6658;53.080;7.428;2023-02-03T12:49:15;10.03;;;3.57;;
13185;SDS011;6658;53.080;7.428;2023-02-03T12:51:58;9.93;;;2.03;;
13185;SDS011;6658;53.080;7.428;2023-02-03T12:58:11;4.03;;;2.00;;
13185;SDS011;6658;53.080;7.428;2023-02-03T13:00:57;9.93;;;2.47;;
13185;SDS011;6658;53.080;7.428;2023-02-03T13:06:21;14.13;;;3.03;;
13185;SDS011;6658;53.080;7.428;2023-02-03T13:09:01;8.20;;;3.03;;
13185;SDS011;6658;53.080;7.428;2023-02-03T13:17:27;9.50;;;3.40;;
13185;SDS011;6658;53.080;7.428;2023-02-03T13:19:57;6.60;;;3.30;;
13185;SDS011;6658;53.080;7.428;2023-02-03T13:22:26;11.70;;;3.47;;
13185;SDS011;6658;53.080;7.428;2023-02-03T13:24:56;5.37;;;2.23;;
13185;SDS011;6658;53.080;7.428;2023-02-03T13:27:43;11.60;;;3.70;;
13185;SDS011;6658;53.080;7.428;2023-02-03T13:41:01;5.40;;;1.67;;
13185;SDS011;6658;53.080;7.428;2023-02-03T13:43:35;8.27;;;2.40;;
13185;SDS011;6658;53.080;7.428;2023-02-03T13:46:05;10.00;;;3.37;;
13185;SDS011;6658;53.080;7.428;2023-02-03T13:48:43;11.20;;;2.90;;
13185;SDS011;6658;53.080;7.428;2023-02-03T13:51:14;6.27;;;3.20;;
13185;SDS011;6658;53.080;7.428;2023-02-03T13:53:44;11.23;;;3.40;;
13185;SDS011;6658;53.080;7.428;2023-02-03T13:56:20;11.77;;;3.57;;
13185;SDS011;6658;53.080;7.428;2023-02-03T14:01:36;6.53;;;2.63;;
13185;SDS011;6658;53.080;7.428;2023-02-03T14:04:04;14.97;;;4.00;;
13185;SDS011;6658;53.080;7.428;2023-02-03T14:06:54;15.47;;;3.57;;
13185;SDS011;6658;53.080;7.428;2023-02-03T14:14:40;7.53;;;2.63;;
13185;SDS011;6658;53.080;7.428;2023-02-03T14:20:00;12.47;;;3.63;;
13185;SDS011;6658;53.080;7.428;2023-02-03T14:22:27;13.37;;;3.97;;
13185;SDS011;6658;53.080;7.428;2023-02-03T14:24:55;15.20;;;3.90;;
13185;SDS011;6658;53.080;7.428;2023-02-03T14:27:28;13.63;;;4.40;;
13185;SDS011;6658;53.080;7.428;2023-02-03T14:30:03;15.93;;;3.70;;
13185;SDS011;6658;53.080;7.428;2023-02-03T14:32:48;23.10;;;5.60;;
13185;SDS011;6658;53.080;7.428;2023-02-03T14:35:18;14.63;;;4.13;;
13185;SDS011;6658;53.080;7.428;2023-02-03T14:37:53;16.43;;;4.30;;
13185;SDS011;6658;53.080;7.428;2023-02-03T14:59:34;11.53;;;3.90;;
13185;SDS011;6658;53.080;7.428;2023-02-03T15:04:41;10.23;;;3.17;;
13185;SDS011;6658;53.080;7.428;2023-02-03T15:07:09;12.33;;;3.93;;
13185;SDS011;6658;53.080;7.428;2023-02-03T15:10:39;11.47;;;2.67;;
13185;SDS011;6658;53.080;7.428;2023-02-03T15:13:22;11.47;;;3.43;;
13185;SDS011;6658;53.080;7.428;2023-02-03T15:15:49;11.10;;;3.40;;
13185;SDS011;6658;53.080;7.428;2023-02-03T15:18:29;8.80;;;2.90;;
13185;SDS011;6658;53.080;7.428;2023-02-03T15:20:56;7.07;;;2.80;;
13185;SDS011;6658;53.080;7.428;2023-02-03T15:23:23;6.93;;;2.33;;
13185;SDS011;6658;53.080;7.428;2023-02-03T15:25:52;9.70;;;2.83;;
13185;SDS011;6658;53.080;7.428;2023-02-03T15:28:22;6.27;;;2.10;;
13185;SDS011;6658;53.080;7.428;2023-02-03T15:31:13;8.93;;;3.17;;
13185;SDS011;6658;53.080;7.428;2023-02-03T15:33:53;6.03;;;1.80;;
13185;SDS011;6658;53.080;7.428;2023-02-03T15:36:25;12.27;;;3.10;;
13185;SDS011;6658;53.080;7.428;2023-02-03T15:38:59;9.03;;;3.07;;
13185;SDS011;6658;53.080;7.428;2023-02-03T15:41:35;11.20;;;2.33;;
13185;SDS011;6658;53.080;7.428;2023-02-03T15:44:05;15.27;;;4.40;;
13185;SDS011;6658;53.080;7.428;2023-02-03T15:46:40;8.50;;;2.50;;
13185;SDS011;6658;53.080;7.428;2023-02-03T15:51:45;13.60;;;3.60;;
13185;SDS011;6658;53.080;7.428;2023-02-03T15:54:21;9.50;;;2.93;;
13185;SDS011;6658;53.080;7.428;2023-02-03T15:59:43;9.67;;;3.43;;
13185;SDS011;6658;53.080;7.428;2023-02-03T16:04:45;10.07;;;3.10;;
13185;SDS011;6658;53.080;7.428;2023-02-03T16:07:20;14.90;;;3.47;;
13185;SDS011;6658;53.080;7.428;2023-02-03T16:09:54;6.27;;;2.47;;
13185;SDS011;6658;53.080;7.428;2023-02-03T16:12:22;6.03;;;2.63;;
13185;SDS011;6658;53.080;7.428;2023-02-03T16:14:52;11.33;;;4.00;;
13185;SDS011;6658;53.080;7.428;2023-02-03T16:17:20;9.17;;;2.97;;
13185;SDS011;6658;53.080;7.428;2023-02-03T16:22:38;10.13;;;3.10;;
13185;SDS011;6658;53.080;7.428;2023-02-03T16:28:30;9.77;;;3.27;;
13185;SDS011;6658;53.080;7.428;2023-02-03T16:33:45;10.80;;;4.33;;
13185;SDS011;6658;53.080;7.428;2023-02-03T16:36:30;8.93;;;2.23;;
13185;SDS011;6658;53.080;7.428;2023-02-03T16:39:14;10.07;;;3.20;;
13185;SDS011;6658;53.080;7.428;2023-02-03T16:41:59;12.37;;;3.50;;
13185;SDS011;6658;53.080;7.428;2023-02-03T16:44:49;9.93;;;2.57;;
13185;SDS011;6658;53.080;7.428;2023-02-03T16:47:35;13.83;;;3.80;;
13185;SDS011;6658;53.080;7.428;2023-02-03T16:50:21;11.47;;;3.57;;
13185;SDS011;6658;53.080;7.428;2023-02-03T16:53:11;9.50;;;2.33;;
13185;SDS011;6658;53.080;7.428;2023-02-03T16:55:39;15.47;;;3.40;;
13185;SDS011;6658;53.080;7.428;2023-02-03T16:58:05;16.53;;;3.50;;
13185;SDS011;6658;53.080;7.428;2023-02-03T17:00:31;10.03;;;2.63;;
13185;SDS011;6658;53.080;7.428;2023-02-03T17:02:57;15.13;;;4.07;;
13185;SDS011;6658;53.080;7.428;2023-02-03T17:05:22;9.20;;;3.13;;
13185;SDS011;6658;53.080;7.428;2023-02-03T17:07:48;18.80;;;3.77;;
13185;SDS011;6658;53.080;7.428;2023-02-03T17:10:15;6.73;;;2.50;;
13185;SDS011;6658;53.080;7.428;2023-02-03T17:12:41;7.97;;;3.17;;
13185;SDS011;6658;53.080;7.428;2023-02-03T17:15:06;13.50;;;3.47;;
13185;SDS011;6658;53.080;7.428;2023-02-03T17:17:32;10.90;;;3.63;;
13185;SDS011;6658;53.080;7.428;2023-02-03T17:19:58;11.43;;;3.40;;
13185;SDS011;6658;53.080;7.428;2023-02-03T17:22:25;10.50;;;3.43;;
13185;SDS011;6658;53.080;7.428;2023-02-03T17:24:51;15.43;;;4.73;;
13185;SDS011;6658;53.080;7.428;2023-02-03T17:27:17;10.47;;;3.30;;
13185;SDS011;6658;53.080;7.428;2023-02-03T17:29:43;11.73;;;3.43;;
13185;SDS011;6658;53.080;7.428;2023-02-03T17:32:08;14.07;;;3.20;;
13185;SDS011;6658;53.080;7.428;2023-02-03T17:34:39;12.10;;;2.93;;
13185;SDS011;6658;53.080;7.428;2023-02-03T17:37:05;16.60;;;4.53;;
13185;SDS011;6658;53.080;7.428;2023-02-03T17:39:31;8.73;;;2.87;;
13185;SDS011;6658;53.080;7.428;2023-02-03T17:41:56;10.53;;;2.90;;
13185;SDS011;6658;53.080;7.428;2023-02-03T17:44:22;11.30;;;4.13;;